sensor_id;sensor_type;location;lat;lon;timestamp;temperature;humidity
25320;DHT22;13256;49.012;8.610;2023-06-22T00:00:26;21.70;99.90
25320;DHT22;13256;49.012;8.610;2023-06-22T00:02:54;21.60;99.90
25320;DHT22;13256;49.012;8.610;2023-06-22T00:05:26;21.70;99.90
25320;DHT22;13256;49.012;8.610;2023-06-22T00:08:22;21.70;99.90
25320;DHT22;13256;49.012;8.610;2023-06-22T00:10:51;21.70;99.90
25320;DHT22;13256;49.012;8.610;2023-06-22T00:31:13;21.80;99.90
25320;DHT22;13256;49.012;8.610;2023-06-22T00:33:41;21.90;99.90
25320;DHT22;13256;49.012;8.610;2023-06-22T00:36:09;21.80;99.90
25320;DHT22;13256;49.012;8.610;2023-06-22T00:42:49;21.50;99.90
25320;DHT22;13256;49.012;8.610;2023-06-22T00:49:06;21.40;99.90
25320;DHT22;13256;49.012;8.610;2023-06-22T00:51:36;21.30;99.90
25320;DHT22;13256;49.012;8.610;2023-06-22T00:54:09;21.30;99.90
25320;DHT22;13256;49.012;8.610;2023-06-22T00:56:40;21.30;99.90
25320;DHT22;13256;49.012;8.610;2023-06-22T00:59:12;21.30;99.90
25320;DHT22;13256;49.012;8.610;2023-06-22T01:01:41;21.30;99.90
25320;DHT22;13256;49.012;8.610;2023-06-22T01:08:26;21.20;99.90
25320;DHT22;13256;49.012;8.610;2023-06-22T01:31:07;21.00;99.90
25320;DHT22;13256;49.012;8.610;2023-06-22T01:33:45;21.00;99.90
25320;DHT22;13256;49.012;8.610;2023-06-22T01:36:42;21.00;99.90
25320;DHT22;13256;49.012;8.610;2023-06-22T01:39:12;21.00;99.90
25320;DHT22;13256;49.012;8.610;2023-06-22T01:55:07;20.80;99.90
25320;DHT22;13256;49.012;8.610;2023-06-22T01:57:35;20.70;99.90
25320;DHT22;13256;49.012;8.610;2023-06-22T02:00:03;20.70;99.90
25320;DHT22;13256;49.012;8.610;2023-06-22T02:03:14;20.60;99.90
25320;DHT22;13256;49.012;8.610;2023-06-22T02:14:25;20.30;99.90
25320;DHT22;13256;49.012;8.610;2023-06-22T02:16:56;20.10;99.90
25320;DHT22;13256;49.012;8.610;2023-06-22T02:19:26;20.10;99.90
25320;DHT22;13256;49.012;8.610;2023-06-22T02:22:29;20.00;99.90
25320;DHT22;13256;49.012;8.610;2023-06-22T02:24:56;20.00;99.90
25320;DHT22;13256;49.012;8.610;2023-06-22T02:27:53;19.90;99.90
25320;DHT22;13256;49.012;8.610;2023-06-22T02:30:21;19.90;99.90
25320;DHT22;13256;49.012;8.610;2023-06-22T02:32:50;19.90;99.90
25320;DHT22;13256;49.012;8.610;2023-06-22T02:36:16;19.80;99.90
25320;DHT22;13256;49.012;8.610;2023-06-22T02:38:44;19.80;99.90
25320;DHT22;13256;49.012;8.610;2023-06-22T02:51:23;20.00;99.90
25320;DHT22;13256;49.012;8.610;2023-06-22T02:53:50;19.90;99.90
25320;DHT22;13256;49.012;8.610;2023-06-22T02:59:25;19.80;99.90
25320;DHT22;13256;49.012;8.610;2023-06-22T03:04:55;19.80;99.90
25320;DHT22;13256;49.012;8.610;2023-06-22T05:23:40;20.20;99.90
25320;DHT22;13256;49.012;8.610;2023-06-22T05:26:09;20.30;99.90
25320;DHT22;13256;49.012;8.610;2023-06-22T05:47:43;20.80;99.90
25320;DHT22;13256;49.012;8.610;2023-06-22T06:06:04;21.20;99.90
25320;DHT22;13256;49.012;8.610;2023-06-22T06:11:59;21.40;99.90
25320;DHT22;13256;49.012;8.610;2023-06-22T06:17:35;21.60;99.90
25320;DHT22;13256;49.012;8.610;2023-06-22T06:22:47;21.80;99.90
25320;DHT22;13256;49.012;8.610;2023-06-22T06:40:04;22.40;99.90
25320;DHT22;13256;49.012;8.610;2023-06-22T06:42:32;22.60;99.90
25320;DHT22;13256;49.012;8.610;2023-06-22T06:57:41;23.00;99.90
25320;DHT22;13256;49.012;8.610;2023-06-22T07:11:54;23.50;99.90
25320;DHT22;13256;49.012;8.610;2023-06-22T07:17:23;23.70;99.90
25320;DHT22;13256;49.012;8.610;2023-06-22T07:20:02;23.90;99.90
25320;DHT22;13256;49.012;8.610;2023-06-22T07:46:28;25.00;99.90
25320;DHT22;13256;49.012;8.610;2023-06-22T07:48:57;25.20;99.90
25320;DHT22;13256;49.012;8.610;2023-06-22T08:08:34;26.00;99.90
25320;DHT22;13256;49.012;8.610;2023-06-22T08:17:30;26.50;99.90
25320;DHT22;13256;49.012;8.610;2023-06-22T08:28:45;27.00;99.90
25320;DHT22;13256;49.012;8.610;2023-06-22T08:31:12;27.00;99.90
25320;DHT22;13256;49.012;8.610;2023-06-22T09:24:03;28.80;99.90
25320;DHT22;13256;49.012;8.610;2023-06-22T09:26:32;29.10;99.90
25320;DHT22;13256;49.012;8.610;2023-06-22T09:35:14;29.80;99.90
25320;DHT22;13256;49.012;8.610;2023-06-22T10:07:01;30.90;99.90
25320;DHT22;13256;49.012;8.610;2023-06-22T10:24:42;30.60;99.90
25320;DHT22;13256;49.012;8.610;2023-06-22T10:36:18;30.20;99.90
25320;DHT22;13256;49.012;8.610;2023-06-22T10:53:59;30.50;99.90
25320;DHT22;13256;49.012;8.610;2023-06-22T10:56:28;30.50;99.90
25320;DHT22;13256;49.012;8.610;2023-06-22T10:59:22;30.50;99.90
25320;DHT22;13256;49.012;8.610;2023-06-22T11:01:51;30.40;99.90
25320;DHT22;13256;49.012;8.610;2023-06-22T11:04:22;30.40;99.90
25320;DHT22;13256;49.012;8.610;2023-06-22T11:06:57;30.40;99.90
25320;DHT22;13256;49.012;8.610;2023-06-22T11:09:25;30.40;99.90
25320;DHT22;13256;49.012;8.610;2023-06-22T11:11:59;30.30;99.90
25320;DHT22;13256;49.012;8.610;2023-06-22T11:14:31;30.40;99.90
25320;DHT22;13256;49.012;8.610;2023-06-22T11:17:23;30.40;99.90
25320;DHT22;13256;49.012;8.610;2023-06-22T11:19:50;30.40;99.90
25320;DHT22;13256;49.012;8.610;2023-06-22T11:22:49;30.30;99.90
25320;DHT22;13256;49.012;8.610;2023-06-22T11:25:15;30.30;99.90
25320;DHT22;13256;49.012;8.610;2023-06-22T11:28:11;30.30;99.90
25320;DHT22;13256;49.012;8.610;2023-06-22T11:30:39;30.30;99.90
25320;DHT22;13256;49.012;8.610;2023-06-22T11:36:54;30.50;99.90
25320;DHT22;13256;49.012;8.610;2023-06-22T11:39:20;30.70;99.90
25320;DHT22;13256;49.012;8.610;2023-06-22T11:42:36;30.60;99.90
25320;DHT22;13256;49.012;8.610;2023-06-22T11:45:08;30.70;99.90
25320;DHT22;13256;49.012;8.610;2023-06-22T11:48:04;30.70;99.90
25320;DHT22;13256;49.012;8.610;2023-06-22T11:50:32;30.60;99.90
25320;DHT22;13256;49.012;8.610;2023-06-22T11:53:10;30.50;99.90
25320;DHT22;13256;49.012;8.610;2023-06-22T11:55:45;30.30;99.90
25320;DHT22;13256;49.012;8.610;2023-06-22T11:58:15;30.30;99.90
25320;DHT22;13256;49.012;8.610;2023-06-22T12:01:08;30.30;99.90
25320;DHT22;13256;49.012;8.610;2023-06-22T12:03:35;30.30;99.90
25320;DHT22;13256;49.012;8.610;2023-06-22T12:06:35;30.10;99.90
25320;DHT22;13256;49.012;8.610;2023-06-22T12:09:04;30.00;99.90
25320;DHT22;13256;49.012;8.610;2023-06-22T12:11:32;30.00;99.90
25320;DHT22;13256;49.012;8.610;2023-06-22T12:14:01;30.00;99.90
25320;DHT22;13256;49.012;8.610;2023-06-22T12:16:54;30.00;99.90
25320;DHT22;13256;49.012;8.610;2023-06-22T12:19:21;30.10;99.90
25320;DHT22;13256;49.012;8.610;2023-06-22T12:21:58;30.10;99.90
25320;DHT22;13256;49.012;8.610;2023-06-22T12:24:24;30.30;99.90
25320;DHT22;13256;49.012;8.610;2023-06-22T12:30:19;30.70;99.90
25320;DHT22;13256;49.012;8.610;2023-06-22T12:32:50;30.80;99.90
25320;DHT22;13256;49.012;8.610;2023-06-22T12:35:49;30.90;99.90
25320;DHT22;13256;49.012;8.610;2023-06-22T12:38:17;31.20;99.90
25320;DHT22;13256;49.012;8.610;2023-06-22T12:40:46;31.30;99.90
25320;DHT22;13256;49.012;8.610;2023-06-22T12:43:13;31.50;99.90
25320;DHT22;13256;49.012;8.610;2023-06-22T12:45:42;31.30;99.90
25320;DHT22;13256;49.012;8.610;2023-06-22T12:48:25;31.30;99.90
25320;DHT22;13256;49.012;8.610;2023-06-22T12:50:52;31.30;99.90
25320;DHT22;13256;49.012;8.610;2023-06-22T12:53:23;31.20;99.90
25320;DHT22;13256;49.012;8.610;2023-06-22T12:55:52;31.20;99.90
25320;DHT22;13256;49.012;8.610;2023-06-22T12:58:27;31.30;99.90
25320;DHT22;13256;49.012;8.610;2023-06-22T13:00:54;31.50;99.90
25320;DHT22;13256;49.012;8.610;2023-06-22T13:03:21;31.70;99.90
25320;DHT22;13256;49.012;8.610;2023-06-22T13:05:50;32.10;99.90
25320;DHT22;13256;49.012;8.610;2023-06-22T13:08:20;32.60;99.90
25320;DHT22;13256;49.012;8.610;2023-06-22T13:10:48;33.00;99.90
25320;DHT22;13256;49.012;8.610;2023-06-22T13:13:25;33.50;99.90
25320;DHT22;13256;49.012;8.610;2023-06-22T13:15:55;33.80;99.90
25320;DHT22;13256;49.012;8.610;2023-06-22T13:18:43;33.90;99.90
25320;DHT22;13256;49.012;8.610;2023-06-22T13:21:19;34.20;99.40
25320;DHT22;13256;49.012;8.610;2023-06-22T13:23:47;34.00;98.80
25320;DHT22;13256;49.012;8.610;2023-06-22T13:26:20;33.70;98.90
25320;DHT22;13256;49.012;8.610;2023-06-22T13:29:14;33.50;99.70
25320;DHT22;13256;49.012;8.610;2023-06-22T13:31:42;33.40;99.10
25320;DHT22;13256;49.012;8.610;2023-06-22T13:34:10;33.30;99.60
25320;DHT22;13256;49.012;8.610;2023-06-22T13:36:44;33.20;99.50
25320;DHT22;13256;49.012;8.610;2023-06-22T13:39:16;33.40;99.90
25320;DHT22;13256;49.012;8.610;2023-06-22T13:41:47;33.70;99.60
25320;DHT22;13256;49.012;8.610;2023-06-22T13:44:18;34.00;99.40
25320;DHT22;13256;49.012;8.610;2023-06-22T13:46:56;34.00;98.50
25320;DHT22;13256;49.012;8.610;2023-06-22T13:49:25;33.90;97.90
25320;DHT22;13256;49.012;8.610;2023-06-22T13:52:02;34.00;98.90
25320;DHT22;13256;49.012;8.610;2023-06-22T13:54:34;34.20;98.50
25320;DHT22;13256;49.012;8.610;2023-06-22T13:57:24;34.40;99.20
25320;DHT22;13256;49.012;8.610;2023-06-22T13:59:53;34.50;97.60
25320;DHT22;13256;49.012;8.610;2023-06-22T14:02:28;34.50;98.10
25320;DHT22;13256;49.012;8.610;2023-06-22T14:04:58;34.50;97.60
25320;DHT22;13256;49.012;8.610;2023-06-22T14:07:27;34.70;97.90
25320;DHT22;13256;49.012;8.610;2023-06-22T14:09:55;34.90;96.50
25320;DHT22;13256;49.012;8.610;2023-06-22T14:12:24;34.80;96.60
25320;DHT22;13256;49.012;8.610;2023-06-22T14:15:01;34.60;96.10
25320;DHT22;13256;49.012;8.610;2023-06-22T14:17:50;34.20;96.50
25320;DHT22;13256;49.012;8.610;2023-06-22T14:20:20;33.70;96.80
25320;DHT22;13256;49.012;8.610;2023-06-22T14:22:53;33.40;97.50
25320;DHT22;13256;49.012;8.610;2023-06-22T14:25:24;33.00;97.70
25320;DHT22;13256;49.012;8.610;2023-06-22T14:27:59;32.70;98.60
25320;DHT22;13256;49.012;8.610;2023-06-22T14:30:27;32.50;99.20
25320;DHT22;13256;49.012;8.610;2023-06-22T14:33:17;32.40;99.30
25320;DHT22;13256;49.012;8.610;2023-06-22T14:35:46;32.20;99.80
25320;DHT22;13256;49.012;8.610;2023-06-22T14:38:18;32.00;99.30
25320;DHT22;13256;49.012;8.610;2023-06-22T14:40:48;31.90;99.60
25320;DHT22;13256;49.012;8.610;2023-06-22T14:43:50;31.70;99.90
25320;DHT22;13256;49.012;8.610;2023-06-22T14:46:19;31.60;99.90
25320;DHT22;13256;49.012;8.610;2023-06-22T14:48:50;31.60;99.90
25320;DHT22;13256;49.012;8.610;2023-06-22T14:51:19;31.50;99.90
25320;DHT22;13256;49.012;8.610;2023-06-22T14:53:47;31.60;99.90
25320;DHT22;13256;49.012;8.610;2023-06-22T14:56:14;31.60;99.90
25320;DHT22;13256;49.012;8.610;2023-06-22T14:59:05;31.60;99.60
25320;DHT22;13256;49.012;8.610;2023-06-22T15:01:50;31.70;99.50
25320;DHT22;13256;49.012;8.610;2023-06-22T15:04:33;31.90;99.80
25320;DHT22;13256;49.012;8.610;2023-06-22T15:07:09;32.20;98.60
25320;DHT22;13256;49.012;8.610;2023-06-22T15:09:55;32.60;98.50
25320;DHT22;13256;49.012;8.610;2023-06-22T15:12:23;32.80;97.10
25320;DHT22;13256;49.012;8.610;2023-06-22T15:15:06;33.00;95.40
25320;DHT22;13256;49.012;8.610;2023-06-22T15:18:01;33.10;94.30
25320;DHT22;13256;49.012;8.610;2023-06-22T15:20:30;32.80;95.20
25320;DHT22;13256;49.012;8.610;2023-06-22T15:22:59;32.90;95.30
25320;DHT22;13256;49.012;8.610;2023-06-22T15:25:32;32.90;94.90
25320;DHT22;13256;49.012;8.610;2023-06-22T15:28:01;32.90;95.10
25320;DHT22;13256;49.012;8.610;2023-06-22T15:30:29;32.90;95.00
25320;DHT22;13256;49.012;8.610;2023-06-22T15:33:01;32.60;96.00
25320;DHT22;13256;49.012;8.610;2023-06-22T15:35:55;32.70;96.20
25320;DHT22;13256;49.012;8.610;2023-06-22T15:38:56;33.10;96.10
25320;DHT22;13256;49.012;8.610;2023-06-22T15:41:26;33.20;94.80
25320;DHT22;13256;49.012;8.610;2023-06-22T15:44:00;33.30;95.30
25320;DHT22;13256;49.012;8.610;2023-06-22T15:46:28;33.10;95.30
25320;DHT22;13256;49.012;8.610;2023-06-22T15:49:04;33.20;95.80
25320;DHT22;13256;49.012;8.610;2023-06-22T15:51:37;33.00;94.80
25320;DHT22;13256;49.012;8.610;2023-06-22T15:54:04;33.00;95.30
25320;DHT22;13256;49.012;8.610;2023-06-22T15:56:36;32.90;95.50
25320;DHT22;13256;49.012;8.610;2023-06-22T15:59:04;32.90;96.30
25320;DHT22;13256;49.012;8.610;2023-06-22T16:01:31;32.90;94.90
25320;DHT22;13256;49.012;8.610;2023-06-22T16:04:32;32.90;95.70
25320;DHT22;13256;49.012;8.610;2023-06-22T16:07:00;33.00;95.40
25320;DHT22;13256;49.012;8.610;2023-06-22T16:09:29;33.00;94.90
25320;DHT22;13256;49.012;8.610;2023-06-22T16:16:23;32.90;95.30
25320;DHT22;13256;49.012;8.610;2023-06-22T16:18:50;32.80;94.40
25320;DHT22;13256;49.012;8.610;2023-06-22T16:21:17;32.90;94.00
25320;DHT22;13256;49.012;8.610;2023-06-22T16:23:44;32.90;94.50
25320;DHT22;13256;49.012;8.610;2023-06-22T16:29:31;32.60;93.30
25320;DHT22;13256;49.012;8.610;2023-06-22T16:32:00;32.40;94.60
25320;DHT22;13256;49.012;8.610;2023-06-22T16:34:28;32.10;94.30
25320;DHT22;13256;49.012;8.610;2023-06-22T16:37:05;32.00;94.80
25320;DHT22;13256;49.012;8.610;2023-06-22T16:39:34;31.80;95.30
25320;DHT22;13256;49.012;8.610;2023-06-22T16:42:00;31.70;95.50
25320;DHT22;13256;49.012;8.610;2023-06-22T16:44:33;31.70;95.40
25320;DHT22;13256;49.012;8.610;2023-06-22T16:47:01;31.70;96.20
25320;DHT22;13256;49.012;8.610;2023-06-22T16:52:53;31.70;96.40
25320;DHT22;13256;49.012;8.610;2023-06-22T16:55:21;31.70;95.80
25320;DHT22;13256;49.012;8.610;2023-06-22T16:57:51;31.70;96.00
25320;DHT22;13256;49.012;8.610;2023-06-22T17:00:18;31.80;96.30
25320;DHT22;13256;49.012;8.610;2023-06-22T17:02:49;31.90;96.30
25320;DHT22;13256;49.012;8.610;2023-06-22T17:05:17;31.90;96.50
25320;DHT22;13256;49.012;8.610;2023-06-22T17:07:51;31.90;96.90
25320;DHT22;13256;49.012;8.610;2023-06-22T17:10:23;31.70;97.10
25320;DHT22;13256;49.012;8.610;2023-06-22T17:13:04;31.70;97.00
25320;DHT22;13256;49.012;8.610;2023-06-22T17:15:38;31.60;97.30
25320;DHT22;13256;49.012;8.610;2023-06-22T17:28:55;31.30;96.10
25320;DHT22;13256;49.012;8.610;2023-06-22T17:31:38;31.20;95.80
25320;DHT22;13256;49.012;8.610;2023-06-22T17:37:56;30.70;94.40
25320;DHT22;13256;49.012;8.610;2023-06-22T17:40:28;30.50;95.10
25320;DHT22;13256;49.012;8.610;2023-06-22T17:50:06;30.50;94.00
25320;DHT22;13256;49.012;8.610;2023-06-22T17:52:35;30.40;93.70
25320;DHT22;13256;49.012;8.610;2023-06-22T17:55:05;30.20;93.40
25320;DHT22;13256;49.012;8.610;2023-06-22T17:57:37;30.20;93.10
25320;DHT22;13256;49.012;8.610;2023-06-22T18:03:57;30.00;91.70
25320;DHT22;13256;49.012;8.610;2023-06-22T18:06:36;29.80;91.60
25320;DHT22;13256;49.012;8.610;2023-06-22T18:09:11;29.70;91.90
25320;DHT22;13256;49.012;8.610;2023-06-22T18:11:49;29.60;92.10
25320;DHT22;13256;49.012;8.610;2023-06-22T18:14:45;29.50;91.50
25320;DHT22;13256;49.012;8.610;2023-06-22T18:17:14;29.30;91.60
25320;DHT22;13256;49.012;8.610;2023-06-22T18:19:42;29.20;91.30
25320;DHT22;13256;49.012;8.610;2023-06-22T18:22:14;29.00;91.60
25320;DHT22;13256;49.012;8.610;2023-06-22T18:24:44;28.90;91.70
25320;DHT22;13256;49.012;8.610;2023-06-22T18:27:14;28.70;91.60
25320;DHT22;13256;49.012;8.610;2023-06-22T18:29:44;28.70;92.00
25320;DHT22;13256;49.012;8.610;2023-06-22T18:32:15;28.60;92.60
25320;DHT22;13256;49.012;8.610;2023-06-22T19:08:01;27.00;96.40
25320;DHT22;13256;49.012;8.610;2023-06-22T19:21:59;26.70;97.40
25320;DHT22;13256;49.012;8.610;2023-06-22T19:27:29;26.60;97.80
25320;DHT22;13256;49.012;8.610;2023-06-22T19:35:50;26.30;98.60
25320;DHT22;13256;49.012;8.610;2023-06-22T19:41:39;26.20;99.80
25320;DHT22;13256;49.012;8.610;2023-06-22T19:49:46;25.90;99.90
25320;DHT22;13256;49.012;8.610;2023-06-22T20:01:20;25.50;99.90
25320;DHT22;13256;49.012;8.610;2023-06-22T20:15:56;25.00;99.90
25320;DHT22;13256;49.012;8.610;2023-06-22T20:18:27;24.40;99.90
25320;DHT22;13256;49.012;8.610;2023-06-22T20:24:06;23.00;99.90
25320;DHT22;13256;49.012;8.610;2023-06-22T21:16:51;20.70;99.90
25320;DHT22;13256;49.012;8.610;2023-06-22T22:43:03;20.30;99.90
25320;DHT22;13256;49.012;8.610;2023-06-22T22:51:29;20.20;99.90
25320;DHT22;13256;49.012;8.610;2023-06-22T22:54:05;20.20;99.90
25320;DHT22;13256;49.012;8.610;2023-06-22T22:56:37;20.20;99.90
25320;DHT22;13256;49.012;8.610;2023-06-22T23:00:20;20.20;99.90
25320;DHT22;13256;49.012;8.610;2023-06-22T23:03:16;20.20;99.90
